createdAt,value
2024-03-08T00:00:03.078Z,5.70
2024-03-08T00:01:02.971Z,5.80
2024-03-08T00:02:03.002Z,6.50
2024-03-08T00:03:03.198Z,6.50
2024-03-08T00:04:02.963Z,5.70
2024-03-08T00:05:02.927Z,6.20
2024-03-08T00:06:02.972Z,6.90
2024-03-08T00:07:02.913Z,6.50
2024-03-08T00:08:02.889Z,6.60
2024-03-08T00:09:02.934Z,6.80
2024-03-08T00:10:02.889Z,5.60
2024-03-08T00:11:09.173Z,5.70
2024-03-08T00:12:02.843Z,6.10
2024-03-08T00:13:02.834Z,6.60
2024-03-08T00:14:02.815Z,6.40
2024-03-08T00:15:02.911Z,5.80
2024-03-08T00:16:02.797Z,5.40
2024-03-08T00:17:02.803Z,6.00
2024-03-08T00:18:02.889Z,6.00
2024-03-08T00:19:02.795Z,5.80
2024-03-08T00:20:02.740Z,6.50
2024-03-08T00:21:02.931Z,5.90
2024-03-08T00:22:02.740Z,6.10
2024-03-08T00:23:02.718Z,6.30
2024-03-08T00:24:02.770Z,6.00
2024-03-08T00:25:02.709Z,5.60
2024-03-08T00:26:02.691Z,5.50
2024-03-08T00:27:02.751Z,6.50
2024-03-08T00:28:02.682Z,6.10
2024-03-08T00:29:02.693Z,6.00
2024-03-08T00:30:02.704Z,5.80
2024-03-08T00:31:02.659Z,5.70
2024-03-08T00:32:02.649Z,6.10
2024-03-08T00:33:02.692Z,5.70
2024-03-08T00:34:02.663Z,6.00
2024-03-08T00:35:02.610Z,6.30
2024-03-08T00:36:02.689Z,5.80
2024-03-08T00:37:02.590Z,5.80
2024-03-08T00:38:02.588Z,5.70
2024-03-08T00:39:02.656Z,5.80
2024-03-08T00:40:02.646Z,6.40
2024-03-08T00:41:02.567Z,5.70
2024-03-08T00:42:02.582Z,5.50
2024-03-08T00:43:03.870Z,6.10
2024-03-08T00:44:02.514Z,6.40
2024-03-08T00:45:02.780Z,6.60
2024-03-08T00:46:02.494Z,6.40
2024-03-08T00:47:02.516Z,6.20
2024-03-08T00:48:02.619Z,5.00
2024-03-08T00:49:02.526Z,6.20
2024-03-08T00:50:02.505Z,6.70
2024-03-08T00:51:02.551Z,6.10
2024-03-08T00:52:02.437Z,6.10
2024-03-08T00:53:02.423Z,6.10
2024-03-08T00:54:02.430Z,6.20
2024-03-08T00:55:02.452Z,5.50
2024-03-08T00:56:02.446Z,6.00
2024-03-08T00:57:02.486Z,5.50
2024-03-08T00:58:02.403Z,5.80
2024-03-08T00:59:02.350Z,6.10
2024-03-08T01:00:02.447Z,5.60
2024-03-08T01:01:02.427Z,5.60
2024-03-08T01:02:02.360Z,5.90
2024-03-08T01:03:02.446Z,6.30
2024-03-08T01:04:02.382Z,6.10
2024-03-08T01:05:02.348Z,5.40
2024-03-08T01:06:02.596Z,5.80
2024-03-08T01:07:02.304Z,6.00
2024-03-08T01:08:02.321Z,6.00
2024-03-08T01:09:02.336Z,5.60
2024-03-08T01:10:02.278Z,6.20
2024-03-08T01:11:02.288Z,5.40
2024-03-08T01:12:02.303Z,6.30
2024-03-08T01:13:02.249Z,5.80
2024-03-08T01:14:02.212Z,6.20
2024-03-08T01:15:02.273Z,5.50
2024-03-08T01:16:02.194Z,6.10
2024-03-08T01:17:02.291Z,6.10
2024-03-08T01:18:02.331Z,5.70
2024-03-08T01:19:02.243Z,4.90
2024-03-08T01:20:02.165Z,5.50
2024-03-08T01:21:02.210Z,5.60
2024-03-08T01:22:02.174Z,5.90
2024-03-08T01:23:02.153Z,4.80
2024-03-08T01:24:02.178Z,5.20
2024-03-08T01:25:02.130Z,5.50
2024-03-08T01:26:02.093Z,5.80
2024-03-08T01:27:02.157Z,4.60
2024-03-08T01:28:02.119Z,5.70
2024-03-08T01:29:02.066Z,5.30
2024-03-08T01:30:02.092Z,6.10
2024-03-08T01:31:02.060Z,5.10
2024-03-08T01:32:02.055Z,5.50
2024-03-08T01:33:02.129Z,5.90
2024-03-08T01:34:02.014Z,5.60
2024-03-08T01:35:02.022Z,5.70
2024-03-08T01:36:02.057Z,5.80
2024-03-08T01:37:02.966Z,5.40
2024-03-08T01:38:01.960Z,6.40
2024-03-08T01:39:02.029Z,5.70
2024-03-08T01:40:01.952Z,5.30
2024-03-08T01:41:01.951Z,6.00
2024-03-08T01:42:02.099Z,5.40
2024-03-08T01:43:01.926Z,5.00
2024-03-08T01:44:01.913Z,5.50
2024-03-08T01:45:02.022Z,5.00
2024-03-08T01:46:01.912Z,5.60
2024-03-08T01:47:01.927Z,5.50
2024-03-08T01:48:01.980Z,5.60
2024-03-08T01:49:02.288Z,5.00
2024-03-08T01:50:01.863Z,5.50
2024-03-08T01:51:01.867Z,5.30
2024-03-08T01:52:01.862Z,5.40
2024-03-08T01:53:01.830Z,5.90
2024-03-08T01:54:01.860Z,5.80
2024-03-08T01:55:01.817Z,5.10
2024-03-08T01:56:01.801Z,6.20
2024-03-08T01:57:01.909Z,5.30
2024-03-08T01:58:01.766Z,5.40
2024-03-08T01:59:02.053Z,5.10
2024-03-08T02:00:01.927Z,5.90
2024-03-08T02:01:01.890Z,5.70
2024-03-08T02:02:01.787Z,5.50
2024-03-08T02:03:01.777Z,5.90
2024-03-08T02:04:01.702Z,5.40
2024-03-08T02:05:01.741Z,5.30
2024-03-08T02:06:01.753Z,5.90
2024-03-08T02:07:01.696Z,6.10
2024-03-08T02:08:01.672Z,5.60
2024-03-08T02:09:01.713Z,6.00
2024-03-08T02:10:01.680Z,5.80
2024-03-08T02:11:01.657Z,5.90
2024-03-08T02:12:01.648Z,6.30
2024-03-08T02:13:01.621Z,5.80
2024-03-08T02:14:01.613Z,5.50
2024-03-08T02:15:01.700Z,5.10
2024-03-08T02:16:01.670Z,5.70
2024-03-08T02:17:01.590Z,6.00
2024-03-08T02:18:01.657Z,5.80
2024-03-08T02:19:01.600Z,4.80
2024-03-08T02:20:01.548Z,5.60
2024-03-08T02:21:01.567Z,5.40
2024-03-08T02:22:01.557Z,5.80
2024-03-08T02:23:01.528Z,5.70
2024-03-08T02:24:01.594Z,5.60
2024-03-08T02:25:01.501Z,6.30
2024-03-08T02:26:01.495Z,5.60
2024-03-08T02:27:01.611Z,5.80
2024-03-08T02:28:01.483Z,5.80
2024-03-08T02:29:01.511Z,5.60
2024-03-08T02:30:01.471Z,6.00
2024-03-08T02:31:01.448Z,5.90
2024-03-08T02:32:01.414Z,5.30
2024-03-08T02:33:01.512Z,5.30
2024-03-08T02:34:01.403Z,5.30
2024-03-08T02:35:01.654Z,6.10
2024-03-08T02:36:01.484Z,6.40
2024-03-08T02:37:01.383Z,4.60
2024-03-08T02:38:01.370Z,5.50
2024-03-08T02:39:01.429Z,5.60
2024-03-08T02:40:01.355Z,5.90
2024-03-08T02:41:01.324Z,5.60
2024-03-08T02:42:01.425Z,5.10
2024-03-08T02:43:01.327Z,5.80
2024-03-08T02:44:01.341Z,5.40
2024-03-08T02:45:01.461Z,4.70
2024-03-08T02:46:01.386Z,5.40
2024-03-08T02:47:01.326Z,5.70
2024-03-08T02:48:01.358Z,5.20
2024-03-08T02:49:01.322Z,5.30
2024-03-08T02:50:01.229Z,5.70
2024-03-08T02:51:01.421Z,5.10
2024-03-08T02:52:01.243Z,5.40
2024-03-08T02:53:01.278Z,4.50
2024-03-08T02:54:01.332Z,4.50
2024-03-08T02:55:01.245Z,5.20
2024-03-08T02:56:01.170Z,5.10
2024-03-08T02:57:01.259Z,4.80
2024-03-08T02:58:01.252Z,5.10
2024-03-08T02:59:01.242Z,4.90
2024-03-08T03:00:01.256Z,5.60
2024-03-08T03:01:01.237Z,5.20
2024-03-08T03:02:01.218Z,6.10
2024-03-08T03:03:01.271Z,5.20
2024-03-08T03:04:01.245Z,5.80
2024-03-08T03:05:01.223Z,5.60
2024-03-08T03:06:01.186Z,5.50
2024-03-08T03:07:01.177Z,5.10
2024-03-08T03:08:01.202Z,4.90
2024-03-08T03:09:01.080Z,5.70
2024-03-08T03:10:01.154Z,5.30
2024-03-08T03:11:01.123Z,5.50
2024-03-08T03:12:01.094Z,5.00
2024-03-08T03:13:01.015Z,6.00
2024-03-08T03:14:01.054Z,5.80
2024-03-08T03:15:01.111Z,5.20
2024-03-08T03:16:00.959Z,5.40
2024-03-08T03:17:00.972Z,5.70
2024-03-08T03:18:01.085Z,4.50
2024-03-08T03:19:00.958Z,5.80
2024-03-08T03:20:01.134Z,6.00
2024-03-08T03:21:00.997Z,5.20
2024-03-08T03:22:00.947Z,5.30
2024-03-08T03:23:00.924Z,5.20
2024-03-08T03:24:00.950Z,5.10
2024-03-08T03:25:00.899Z,4.90
2024-03-08T03:26:00.871Z,5.30
2024-03-08T03:27:00.937Z,4.60
2024-03-08T03:28:00.862Z,5.50
2024-03-08T03:29:00.866Z,5.00
2024-03-08T03:30:00.889Z,4.50
2024-03-08T03:31:00.828Z,5.30
2024-03-08T03:32:00.809Z,5.80
2024-03-08T03:33:00.886Z,5.30
2024-03-08T03:34:00.807Z,5.70
2024-03-08T03:35:00.787Z,5.10
2024-03-08T03:36:00.842Z,5.00
2024-03-08T03:37:00.765Z,4.90
2024-03-08T03:38:00.813Z,5.30
2024-03-08T03:39:00.849Z,4.80
2024-03-08T03:40:00.705Z,5.30
2024-03-08T03:41:00.752Z,4.90
2024-03-08T03:42:00.716Z,4.80
2024-03-08T03:43:00.787Z,5.30
2024-03-08T03:44:00.743Z,5.10
2024-03-08T03:45:00.765Z,5.20
2024-03-08T03:46:00.671Z,5.50
2024-03-08T03:47:00.658Z,4.50
2024-03-08T03:48:00.786Z,4.80
2024-03-08T03:49:00.636Z,4.90
2024-03-08T03:50:00.664Z,5.00
2024-03-08T03:51:00.683Z,5.10
2024-03-08T03:52:00.639Z,4.80
2024-03-08T03:53:00.632Z,5.70
2024-03-08T03:54:00.608Z,4.80
2024-03-08T03:55:00.574Z,5.00
2024-03-08T03:56:00.555Z,5.40
2024-03-08T03:57:00.642Z,4.30
2024-03-08T03:58:00.813Z,4.80
2024-03-08T03:59:00.554Z,5.00
2024-03-08T04:00:00.684Z,4.80
2024-03-08T04:01:00.578Z,5.00
2024-03-08T04:02:00.569Z,5.00
2024-03-08T04:03:00.705Z,5.20
2024-03-08T04:04:00.479Z,6.00
2024-03-08T04:05:00.504Z,5.00
2024-03-08T04:06:00.525Z,5.40
2024-03-08T04:07:00.480Z,5.40
2024-03-08T04:08:00.474Z,5.70
2024-03-08T04:09:00.569Z,4.80
2024-03-08T04:10:00.460Z,5.00
2024-03-08T04:11:00.592Z,5.00
2024-03-08T04:12:00.543Z,5.30
2024-03-08T04:13:00.392Z,4.80
2024-03-08T04:14:00.400Z,4.80
2024-03-08T04:15:00.453Z,4.80
2024-03-08T04:16:00.417Z,5.10
2024-03-08T04:17:00.384Z,5.10
2024-03-08T04:18:00.402Z,5.00
2024-03-08T04:19:00.407Z,5.00
2024-03-08T04:20:00.367Z,5.10
2024-03-08T04:21:00.401Z,5.20
2024-03-08T04:22:00.307Z,4.90
2024-03-08T04:23:00.313Z,5.00
2024-03-08T04:24:00.317Z,4.90
2024-03-08T04:25:00.341Z,5.10
2024-03-08T04:26:00.257Z,5.10
2024-03-08T04:27:00.390Z,4.70
2024-03-08T04:28:00.269Z,4.80
2024-03-08T04:29:00.220Z,5.40
2024-03-08T04:30:00.345Z,5.00
2024-03-08T04:31:00.218Z,5.10
2024-03-08T04:32:00.202Z,5.20
2024-03-08T04:33:00.281Z,5.30
2024-03-08T04:34:00.276Z,4.90
2024-03-08T04:35:00.203Z,5.00
2024-03-08T04:36:00.234Z,5.20
2024-03-08T04:37:00.138Z,4.90
2024-03-08T04:38:00.180Z,4.90
2024-03-08T04:39:00.170Z,5.40
2024-03-08T04:40:00.392Z,4.70
2024-03-08T04:41:00.144Z,5.00
2024-03-08T04:42:01.866Z,5.10
2024-03-08T04:43:00.100Z,5.10
2024-03-08T04:44:00.172Z,5.60
2024-03-08T04:45:00.221Z,5.50
2024-03-08T04:46:00.080Z,4.80
2024-03-08T04:47:00.039Z,5.30
2024-03-08T04:48:00.094Z,5.00
2024-03-08T04:49:00.161Z,5.20
2024-03-08T04:50:00.044Z,5.80
2024-03-08T04:51:00.081Z,5.10
2024-03-08T04:51:59.999Z,6.10
2024-03-08T04:53:00.001Z,5.00
2024-03-08T04:54:00.011Z,5.30
2024-03-08T04:54:59.961Z,5.00
2024-03-08T04:55:59.986Z,5.50
2024-03-08T04:57:00.029Z,5.10
2024-03-08T04:57:59.946Z,4.90
2024-03-08T04:58:59.925Z,5.60
2024-03-08T05:00:00.022Z,5.10
2024-03-08T05:00:59.959Z,5.00
2024-03-08T05:01:59.890Z,5.60
2024-03-08T05:02:59.936Z,5.00
2024-03-08T05:04:04.192Z,4.90
2024-03-08T05:04:59.895Z,5.00
2024-03-08T05:05:59.879Z,5.10
2024-03-08T05:06:59.885Z,5.40
2024-03-08T05:07:59.841Z,4.70
2024-03-08T05:08:59.878Z,5.40
2024-03-08T05:09:59.845Z,6.00
2024-03-08T05:10:59.913Z,4.80
2024-03-08T05:11:59.884Z,5.90
2024-03-08T05:12:59.722Z,5.20
2024-03-08T05:13:59.796Z,4.80
2024-03-08T05:14:59.820Z,5.00
2024-03-08T05:15:59.721Z,4.90
2024-03-08T05:16:59.771Z,5.40
2024-03-08T05:17:59.888Z,5.20
2024-03-08T05:18:59.793Z,5.10
2024-03-08T05:19:59.677Z,5.20
2024-03-08T05:20:59.738Z,5.00
2024-03-08T05:21:59.656Z,5.00
2024-03-08T05:22:59.646Z,6.00
2024-03-08T05:23:59.659Z,5.30
2024-03-08T05:24:59.616Z,5.20
2024-03-08T05:25:59.653Z,5.00
2024-03-08T05:26:59.685Z,5.20
2024-03-08T05:27:59.605Z,5.20
2024-03-08T05:28:59.625Z,5.00
2024-03-08T05:29:59.614Z,5.30
2024-03-08T05:30:59.571Z,5.20
2024-03-08T05:31:59.737Z,5.40
2024-03-08T05:32:59.571Z,5.00
2024-03-08T05:33:59.630Z,5.70
2024-03-08T05:34:59.555Z,5.20
2024-03-08T05:35:59.550Z,5.30
2024-03-08T05:36:59.611Z,5.90
2024-03-08T05:37:59.509Z,5.60
2024-03-08T05:38:59.564Z,4.90
2024-03-08T05:39:59.468Z,5.40
2024-03-08T05:40:59.503Z,5.80
2024-03-08T05:41:59.537Z,5.60
2024-03-08T05:42:59.438Z,5.50
2024-03-08T05:43:59.439Z,5.00
2024-03-08T05:44:59.480Z,5.30
2024-03-08T05:45:59.412Z,5.30
2024-03-08T05:46:59.461Z,5.20
2024-03-08T05:47:59.464Z,5.70
2024-03-08T05:48:59.460Z,5.10
2024-03-08T05:49:59.392Z,5.10
2024-03-08T05:50:59.364Z,5.90
2024-03-08T05:51:59.348Z,5.30
2024-03-08T05:52:59.348Z,5.10
2024-03-08T05:53:59.362Z,6.00
2024-03-08T05:54:59.308Z,5.60
2024-03-08T05:55:59.296Z,5.10
2024-03-08T05:56:59.308Z,5.00
2024-03-08T05:57:59.284Z,5.70
2024-03-08T05:58:59.272Z,5.40
2024-03-08T05:59:59.299Z,5.50
2024-03-08T06:00:59.265Z,5.50
2024-03-08T06:01:59.287Z,5.20
2024-03-08T06:02:59.272Z,5.00
2024-03-08T06:03:59.243Z,5.30
2024-03-08T06:04:59.202Z,5.00
2024-03-08T06:05:59.252Z,5.10
2024-03-08T06:06:59.217Z,6.10
2024-03-08T06:07:59.178Z,5.20
2024-03-08T06:08:59.207Z,4.80
2024-03-08T06:09:59.205Z,5.20
2024-03-08T06:10:59.167Z,5.70
2024-03-08T06:12:07.159Z,5.20
2024-03-08T06:12:59.129Z,6.00
2024-03-08T06:13:59.127Z,5.40
2024-03-08T06:14:59.140Z,5.90
2024-03-08T06:15:59.110Z,5.30
2024-03-08T06:16:59.175Z,7.10
2024-03-08T06:17:59.118Z,7.60
2024-03-08T06:18:59.153Z,9.70
2024-03-08T06:19:59.100Z,9.60
2024-03-08T06:20:59.066Z,8.80
2024-03-08T06:21:59.108Z,7.70
2024-03-08T06:22:59.021Z,7.60
2024-03-08T06:23:59.416Z,8.00
2024-03-08T06:24:59.085Z,7.70
2024-03-08T06:25:59.021Z,6.50
2024-03-08T06:26:59.122Z,6.70
2024-03-08T06:27:59.001Z,7.60
2024-03-08T06:28:59.330Z,6.50
2024-03-08T06:29:58.986Z,6.30
2024-03-08T06:30:58.971Z,6.30
2024-03-08T06:31:58.963Z,5.60
2024-03-08T06:32:58.979Z,6.50
2024-03-08T06:33:59.327Z,7.10
2024-03-08T06:34:58.905Z,8.60
2024-03-08T06:35:59.011Z,7.20
2024-03-08T06:36:58.909Z,5.50
2024-03-08T06:37:58.868Z,6.40
2024-03-08T06:38:58.926Z,5.80
2024-03-08T06:39:58.876Z,6.40
2024-03-08T06:40:58.886Z,5.80
2024-03-08T06:41:58.867Z,5.60
2024-03-08T06:42:59.088Z,5.50
2024-03-08T06:43:58.804Z,5.30
2024-03-08T06:44:58.866Z,5.60
2024-03-08T06:45:58.807Z,5.30
2024-03-08T06:47:00.645Z,5.90
2024-03-08T06:47:58.873Z,5.20
2024-03-08T06:48:58.822Z,5.60
2024-03-08T06:49:58.761Z,5.60
2024-03-08T06:50:58.820Z,5.80
2024-03-08T06:51:58.715Z,6.10
2024-03-08T06:52:58.750Z,5.90
2024-03-08T06:53:58.761Z,5.80
2024-03-08T06:54:58.705Z,6.30
2024-03-08T06:55:58.701Z,6.10
2024-03-08T06:56:58.703Z,5.80
2024-03-08T06:57:58.718Z,5.70
2024-03-08T06:58:58.692Z,6.00
2024-03-08T06:59:58.710Z,5.40
2024-03-08T07:00:58.669Z,5.70
2024-03-08T07:01:58.639Z,5.70
2024-03-08T07:02:58.656Z,6.00
2024-03-08T07:03:58.611Z,6.20
2024-03-08T07:04:58.639Z,5.40
2024-03-08T07:05:58.622Z,5.80
2024-03-08T07:06:58.600Z,5.50
2024-03-08T07:07:58.621Z,5.00
2024-03-08T07:08:58.676Z,6.40
2024-03-08T07:09:58.560Z,5.70
2024-03-08T07:10:58.583Z,5.80
2024-03-08T07:11:58.571Z,5.40
2024-03-08T07:12:58.554Z,5.80
2024-03-08T07:13:58.532Z,5.40
2024-03-08T07:14:58.561Z,5.50
2024-03-08T07:15:58.617Z,5.30
2024-03-08T07:16:58.532Z,5.60
2024-03-08T07:17:58.515Z,5.10
2024-03-08T07:18:58.585Z,5.30
2024-03-08T07:19:58.457Z,5.80
2024-03-08T07:20:58.637Z,5.20
2024-03-08T07:21:58.506Z,5.00
2024-03-08T07:22:58.416Z,5.70
2024-03-08T07:23:58.474Z,5.00
2024-03-08T07:24:58.417Z,5.80
2024-03-08T07:25:58.383Z,5.30
2024-03-08T07:26:58.426Z,4.70
2024-03-08T07:27:58.384Z,5.40
2024-03-08T07:28:58.361Z,5.60
2024-03-08T07:30:58.346Z,5.50
2024-03-08T07:31:58.336Z,4.90
2024-03-08T07:32:58.387Z,6.00
2024-03-08T07:33:58.344Z,5.40
2024-03-08T07:34:58.313Z,5.40
2024-03-08T07:35:58.324Z,5.20
2024-03-08T07:36:58.357Z,5.90
2024-03-08T07:37:58.261Z,5.70
2024-03-08T07:38:58.273Z,5.10
2024-03-08T07:39:58.283Z,4.80
2024-03-08T07:40:58.277Z,5.90
2024-03-08T07:41:58.252Z,5.50
2024-03-08T07:42:58.199Z,5.50
2024-03-08T07:43:58.225Z,4.80
2024-03-08T07:44:58.288Z,5.00
2024-03-08T07:45:58.207Z,5.20
2024-03-08T07:46:58.484Z,5.40
2024-03-08T07:47:58.225Z,5.20
2024-03-08T07:48:58.193Z,5.10
2024-03-08T07:49:59.988Z,5.30
2024-03-08T07:50:58.187Z,5.10
2024-03-08T07:51:58.116Z,6.10
2024-03-08T07:52:58.123Z,5.20
2024-03-08T07:54:58.133Z,5.20
2024-03-08T07:55:58.089Z,5.80
2024-03-08T07:56:58.088Z,5.00
2024-03-08T07:57:58.074Z,5.10
2024-03-08T07:58:58.100Z,5.80
2024-03-08T07:59:58.059Z,4.90
2024-03-08T08:00:58.024Z,4.60
2024-03-08T08:01:58.048Z,5.70
2024-03-08T08:02:58.064Z,5.10
2024-03-08T08:03:58.022Z,5.00
2024-03-08T08:04:58.024Z,5.50
2024-03-08T08:05:57.999Z,4.60
2024-03-08T08:06:57.952Z,5.10
2024-03-08T08:07:58.043Z,4.90
2024-03-08T08:08:57.970Z,5.00
2024-03-08T08:09:58.026Z,5.00
2024-03-08T08:10:58.039Z,5.10
2024-03-08T08:11:57.924Z,5.30
2024-03-08T08:12:57.911Z,5.30
2024-03-08T08:13:57.971Z,5.00
2024-03-08T08:14:57.886Z,5.40
2024-03-08T08:15:57.920Z,6.00
2024-03-08T08:16:57.888Z,5.50
2024-03-08T08:17:57.930Z,4.90
2024-03-08T08:18:57.873Z,5.00
2024-03-08T08:19:57.897Z,5.50
2024-03-08T08:20:57.836Z,4.70
2024-03-08T08:21:57.850Z,5.40
2024-03-08T08:22:57.822Z,4.60
2024-03-08T08:23:57.796Z,4.90
2024-03-08T08:24:57.811Z,5.10
2024-03-08T08:25:57.875Z,5.10
2024-03-08T08:26:57.807Z,5.00
2024-03-08T08:27:57.766Z,5.60
2024-03-08T08:28:57.807Z,4.70
2024-03-08T08:29:57.757Z,5.40
2024-03-08T08:30:57.723Z,5.30
2024-03-08T08:31:57.775Z,4.90
2024-03-08T08:32:57.744Z,5.50
2024-03-08T08:33:57.719Z,5.30
2024-03-08T08:34:57.670Z,5.40
2024-03-08T08:35:57.699Z,5.20
2024-03-08T08:36:57.688Z,5.10
2024-03-08T08:37:57.686Z,5.10
2024-03-08T08:38:57.654Z,5.90
2024-03-08T08:39:57.657Z,5.00
2024-03-08T08:40:57.756Z,4.70
2024-03-08T08:41:57.714Z,4.50
2024-03-08T08:42:57.618Z,5.00
2024-03-08T08:44:03.747Z,5.00
2024-03-08T08:44:58.343Z,5.30
2024-03-08T08:45:57.598Z,5.00
2024-03-08T08:47:03.010Z,4.70
2024-03-08T08:47:57.639Z,5.10
2024-03-08T08:48:57.591Z,4.60
2024-03-08T08:49:57.550Z,5.40
2024-03-08T08:50:57.532Z,5.30
2024-03-08T08:52:01.084Z,5.60
2024-03-08T08:52:58.349Z,5.10
2024-03-08T08:53:57.513Z,5.90
2024-03-08T08:54:57.572Z,4.60
2024-03-08T08:55:57.552Z,5.20
2024-03-08T08:56:57.465Z,4.70
2024-03-08T08:57:57.811Z,5.10
2024-03-08T08:58:57.499Z,5.40
2024-03-08T08:59:57.482Z,4.60
2024-03-08T09:00:57.499Z,4.60
2024-03-08T09:01:57.487Z,5.40
2024-03-08T09:02:57.409Z,4.80
2024-03-08T09:03:57.376Z,5.00
2024-03-08T09:04:57.604Z,5.20
2024-03-08T09:05:57.394Z,4.80
2024-03-08T09:06:57.399Z,5.00
2024-03-08T09:07:57.602Z,5.10
2024-03-08T09:08:57.354Z,5.50
2024-03-08T09:09:57.398Z,4.80
2024-03-08T09:10:57.452Z,5.10
2024-03-08T09:11:57.445Z,5.00
2024-03-08T09:12:57.326Z,5.20
2024-03-08T09:13:57.355Z,4.30
2024-03-08T09:14:57.263Z,5.50
2024-03-08T09:15:57.279Z,5.20
2024-03-08T09:16:57.318Z,5.40
2024-03-08T09:17:57.458Z,5.20
2024-03-08T09:18:57.302Z,5.10
2024-03-08T09:19:57.301Z,4.40
2024-03-08T09:20:57.242Z,5.00
2024-03-08T09:21:57.276Z,5.00
2024-03-08T09:22:57.305Z,4.50
2024-03-08T09:23:57.194Z,5.70
2024-03-08T09:24:57.251Z,4.90
2024-03-08T09:25:57.232Z,5.00
2024-03-08T09:26:57.166Z,5.20
2024-03-08T09:27:57.148Z,4.70
2024-03-08T09:28:57.354Z,5.10
2024-03-08T09:29:57.145Z,4.70
2024-03-08T09:31:00.314Z,4.80
2024-03-08T09:31:57.160Z,5.20
2024-03-08T09:32:59.348Z,4.90
2024-03-08T09:33:57.077Z,4.40
2024-03-08T09:34:57.171Z,4.60
2024-03-08T09:35:57.101Z,5.00
2024-03-08T09:36:57.108Z,5.20
2024-03-08T09:37:57.119Z,4.80
2024-03-08T09:38:57.068Z,5.90
2024-03-08T09:39:57.049Z,5.20
2024-03-08T09:40:57.133Z,5.20
2024-03-08T09:41:57.076Z,5.50
2024-03-08T09:42:57.013Z,4.70
2024-03-08T09:43:57.286Z,4.40
2024-03-08T09:44:56.982Z,5.10
2024-03-08T09:45:56.965Z,5.00
2024-03-08T09:46:57.080Z,4.90
2024-03-08T09:47:57.029Z,5.10
2024-03-08T09:48:56.975Z,5.10
2024-03-08T09:49:57.028Z,4.60
2024-03-08T09:50:56.943Z,5.10
2024-03-08T09:51:56.896Z,5.30
2024-03-08T09:52:56.941Z,5.60
2024-03-08T09:53:56.876Z,5.00
2024-03-08T09:54:56.878Z,5.00
2024-03-08T09:55:56.960Z,5.70
2024-03-08T09:56:56.872Z,4.80
2024-03-08T09:57:56.840Z,4.50
2024-03-08T09:58:56.855Z,4.60
2024-03-08T09:59:56.848Z,4.40
2024-03-08T10:00:56.821Z,5.20
2024-03-08T10:01:56.835Z,4.10
2024-03-08T10:02:56.804Z,4.20
2024-03-08T10:03:56.787Z,4.30
2024-03-08T10:04:56.821Z,5.00
2024-03-08T10:05:56.798Z,4.80
2024-03-08T10:06:56.755Z,4.70
2024-03-08T10:07:56.752Z,4.90
2024-03-08T10:08:56.736Z,5.10
2024-03-08T10:09:56.757Z,4.50
2024-03-08T10:10:56.828Z,4.60
2024-03-08T10:11:56.712Z,5.20
2024-03-08T10:12:56.735Z,4.70
2024-03-08T10:13:56.785Z,5.00
2024-03-08T10:14:56.707Z,4.40
2024-03-08T10:15:56.714Z,4.60
2024-03-08T10:16:56.705Z,4.90
2024-03-08T10:17:56.678Z,5.30
2024-03-08T10:18:56.700Z,4.50
2024-03-08T10:19:56.627Z,5.00
2024-03-08T10:20:56.646Z,4.60
2024-03-08T10:21:56.654Z,5.00
2024-03-08T10:23:06.521Z,4.90
2024-03-08T10:23:56.608Z,5.40
2024-03-08T10:24:56.574Z,4.40
2024-03-08T10:25:56.633Z,4.50
2024-03-08T10:26:56.579Z,4.40
2024-03-08T10:27:56.552Z,4.60
2024-03-08T10:28:56.673Z,5.10
2024-03-08T10:29:56.570Z,4.70
2024-03-08T10:30:56.511Z,4.40
2024-03-08T10:31:56.541Z,5.00
2024-03-08T10:32:56.562Z,4.40
2024-03-08T10:33:56.507Z,4.90
2024-03-08T10:34:56.555Z,4.80
2024-03-08T10:35:56.448Z,4.90
2024-03-08T10:36:56.474Z,4.90
2024-03-08T10:37:56.584Z,4.90
2024-03-08T10:38:56.447Z,4.40
2024-03-08T10:39:56.500Z,5.20
2024-03-08T10:40:56.450Z,5.00
2024-03-08T10:41:56.433Z,4.10
2024-03-08T10:42:56.428Z,4.80
2024-03-08T10:43:56.456Z,5.00
2024-03-08T10:44:56.376Z,4.80
2024-03-08T10:45:56.351Z,4.50
2024-03-08T10:46:56.562Z,4.20
2024-03-08T10:47:56.437Z,4.80
2024-03-08T10:48:56.344Z,4.20
2024-03-08T10:49:56.671Z,4.50
2024-03-08T10:50:56.336Z,4.90
2024-03-08T10:51:56.522Z,4.70
2024-03-08T10:52:56.484Z,4.90
2024-03-08T10:53:56.306Z,4.80
2024-03-08T10:54:56.296Z,4.70
2024-03-08T10:55:56.393Z,5.30
2024-03-08T10:56:56.378Z,4.50
2024-03-08T10:57:56.302Z,5.00
2024-03-08T10:58:56.389Z,5.30
2024-03-08T10:59:58.454Z,4.20
2024-03-08T11:00:56.280Z,4.60
2024-03-08T11:01:56.390Z,4.40
2024-03-08T11:02:56.288Z,4.90
2024-03-08T11:03:56.248Z,5.30
2024-03-08T11:04:56.367Z,4.70
2024-03-08T11:05:56.235Z,5.00
2024-03-08T11:06:56.190Z,5.40
2024-03-08T11:07:56.372Z,4.50
2024-03-08T11:08:56.155Z,4.30
2024-03-08T11:09:56.160Z,4.40
2024-03-08T11:10:56.386Z,4.40
2024-03-08T11:11:56.218Z,4.30
2024-03-08T11:12:56.134Z,4.40
2024-03-08T11:13:56.152Z,4.00
2024-03-08T11:14:56.193Z,5.30
2024-03-08T11:15:56.152Z,4.50
2024-03-08T11:16:56.154Z,4.30
2024-03-08T11:17:56.129Z,4.60
2024-03-08T11:18:56.035Z,4.60
2024-03-08T11:19:56.071Z,5.10
2024-03-08T11:20:56.039Z,4.30
2024-03-08T11:21:56.048Z,4.10
2024-03-08T11:22:56.119Z,4.10
2024-03-08T11:23:55.987Z,4.80
2024-03-08T11:24:56.055Z,5.00
2024-03-08T11:25:56.108Z,4.70
2024-03-08T11:26:55.994Z,4.80
2024-03-08T11:27:55.941Z,4.60
2024-03-08T11:28:56.016Z,5.30
2024-03-08T11:29:55.934Z,4.60
2024-03-08T11:30:55.974Z,4.80
2024-03-08T11:31:56.052Z,4.70
2024-03-08T11:32:55.967Z,4.60
2024-03-08T11:33:55.909Z,4.20
2024-03-08T11:34:55.921Z,5.60
2024-03-08T11:35:55.887Z,4.90
2024-03-08T11:36:55.844Z,4.80
2024-03-08T11:37:55.940Z,4.70
2024-03-08T11:38:55.868Z,4.40
2024-03-08T11:39:55.869Z,4.40
2024-03-08T11:40:55.877Z,4.50
2024-03-08T11:41:55.801Z,4.70
2024-03-08T11:42:55.809Z,4.80
2024-03-08T11:43:55.872Z,4.40
2024-03-08T11:44:55.791Z,4.60
2024-03-08T11:45:55.769Z,5.10
2024-03-08T11:46:55.923Z,4.70
2024-03-08T11:47:58.644Z,4.30
2024-03-08T11:48:55.740Z,4.60
2024-03-08T11:49:55.807Z,4.70
2024-03-08T11:50:55.724Z,4.70
2024-03-08T11:51:55.727Z,4.20
2024-03-08T11:52:55.798Z,4.20
2024-03-08T11:53:55.688Z,3.90
2024-03-08T11:54:55.728Z,4.80
2024-03-08T11:55:55.696Z,4.80
2024-03-08T11:56:55.659Z,4.70
2024-03-08T11:57:55.669Z,4.60
2024-03-08T11:58:55.673Z,4.40
2024-03-08T11:59:57.617Z,4.00
2024-03-08T12:00:55.641Z,4.80
2024-03-08T12:01:55.864Z,4.30
2024-03-08T12:02:55.651Z,4.70
2024-03-08T12:03:55.584Z,4.70
2024-03-08T12:04:55.666Z,4.40
2024-03-08T12:05:57.367Z,4.80
2024-03-08T12:06:55.589Z,4.90
2024-03-08T12:07:55.606Z,4.80
2024-03-08T12:08:55.557Z,5.50
2024-03-08T12:09:55.520Z,4.50
2024-03-08T12:10:55.580Z,4.50
2024-03-08T12:11:55.550Z,4.10
2024-03-08T12:12:55.476Z,5.00
2024-03-08T12:13:55.647Z,4.40
2024-03-08T12:14:55.500Z,4.60
2024-03-08T12:15:55.466Z,4.60
2024-03-08T12:16:55.530Z,4.90
2024-03-08T12:17:55.470Z,4.60
2024-03-08T12:18:55.451Z,4.60
2024-03-08T12:19:55.446Z,4.30
2024-03-08T12:20:55.405Z,4.50
2024-03-08T12:21:55.396Z,5.00
2024-03-08T12:22:55.453Z,4.10
2024-03-08T12:23:56.973Z,4.70
2024-03-08T12:24:55.389Z,5.30
2024-03-08T12:25:55.390Z,4.90
2024-03-08T12:26:55.321Z,5.00
2024-03-08T12:27:55.341Z,4.50
2024-03-08T12:28:55.328Z,4.80
2024-03-08T12:29:55.314Z,5.30
2024-03-08T12:30:55.415Z,4.40
2024-03-08T12:31:55.657Z,4.40
2024-03-08T12:32:55.339Z,4.60
2024-03-08T12:33:57.434Z,5.10
2024-03-08T12:34:55.453Z,4.90
2024-03-08T12:35:55.884Z,5.40
2024-03-08T12:36:55.570Z,4.60
2024-03-08T12:37:55.258Z,4.40
2024-03-08T12:38:55.257Z,4.40
2024-03-08T12:39:55.197Z,4.50
2024-03-08T12:40:55.249Z,4.70
2024-03-08T12:41:55.186Z,5.00
2024-03-08T12:42:55.216Z,4.70
2024-03-08T12:43:55.199Z,4.60
2024-03-08T12:44:55.225Z,4.20
2024-03-08T12:45:55.112Z,5.20
2024-03-08T12:46:55.760Z,5.50
2024-03-08T12:47:55.158Z,5.40
2024-03-08T12:48:55.153Z,4.80
2024-03-08T12:49:55.158Z,4.70
2024-03-08T12:50:55.088Z,4.50
2024-03-08T12:51:55.060Z,4.70
2024-03-08T12:52:55.149Z,4.30
2024-03-08T12:53:55.071Z,4.70
2024-03-08T12:54:55.047Z,4.50
2024-03-08T12:55:55.074Z,4.70
2024-03-08T12:56:55.684Z,4.90
2024-03-08T12:57:55.015Z,4.90
2024-03-08T12:58:55.018Z,4.90
2024-03-08T12:59:54.992Z,4.70
2024-03-08T13:00:55.044Z,4.60
2024-03-08T13:01:55.509Z,5.00
2024-03-08T13:02:54.965Z,4.90
2024-03-08T13:03:54.958Z,4.60
2024-03-08T13:04:55.036Z,4.70
2024-03-08T13:05:54.933Z,4.50
2024-03-08T13:06:55.747Z,4.60
2024-03-08T13:07:55.011Z,4.60
2024-03-08T13:08:54.901Z,4.50
2024-03-08T13:09:54.929Z,5.30
2024-03-08T13:10:55.073Z,4.70
2024-03-08T13:11:55.013Z,4.70
2024-03-08T13:12:55.013Z,5.50
2024-03-08T13:13:55.020Z,5.30
2024-03-08T13:14:54.861Z,4.70
2024-03-08T13:15:54.807Z,5.20
2024-03-08T13:16:54.838Z,5.00
2024-03-08T13:17:54.805Z,4.70
2024-03-08T13:18:55.108Z,5.00
2024-03-08T13:19:54.831Z,4.90